Time;durP1;ratioP1;P1;durP2;ratioP2;P2;SDS_P1;SDS_P2;PMS_P1;PMS_P2;Temp;Humidity;BMP_temperature;BMP_pressure;BME280_temperature;BME280_humidity;BME280_pressure;Samples;Min_cycle;Max_cycle;Signal;HPM_P1;HPM_P2
2022/02/28 00:01:31;;;;;;;3.42;2.20;;;;;;;4.81;94.91;102788.63;4970018;28;20039;-55
2022/02/28 00:03:57;;;;;;;5.78;2.28;;;;;;;4.83;95.26;102781.19;4969197;28;20123;-59
2022/02/28 00:06:24;;;;;;;6.28;2.83;;;;;;;4.77;94.64;102777.69;4971675;28;20034;-59
2022/02/28 00:08:50;;;;;;;3.85;1.92;;;;;;;4.74;94.59;102782.75;5004972;28;20085;-58
2022/02/28 00:11:16;;;;;;;5.53;2.65;;;;;;;4.71;94.97;102783.28;4965472;28;20062;-59
2022/02/28 00:13:41;;;;;;;3.38;1.67;;;;;;;4.77;94.08;102782.22;4970531;28;20031;-59
2022/02/28 00:16:07;;;;;;;9.82;2.53;;;;;;;4.69;94.65;102775.53;4973846;28;20113;-59
2022/02/28 00:18:33;;;;;;;4.15;1.92;;;;;;;4.67;94.18;102777.66;4972625;28;20026;-58
2022/02/28 00:20:59;;;;;;;4.90;1.88;;;;;;;4.64;95.03;102786.19;4958917;28;20059;-59
2022/02/28 00:23:26;;;;;;;7.22;2.33;;;;;;;4.59;94.87;102784.31;4972472;28;20086;-57
2022/02/28 00:25:51;;;;;;;4.50;2.20;;;;;;;4.54;95.12;102786.16;4973408;28;20173;-60
2022/02/28 00:28:17;;;;;;;6.07;2.30;;;;;;;4.56;95.31;102773.38;4998071;28;20114;-57
2022/02/28 00:30:43;;;;;;;5.82;2.08;;;;;;;4.50;94.94;102785.88;4998038;28;20453;-57
2022/02/28 00:33:09;;;;;;;10.90;2.60;;;;;;;4.51;95.28;102779.47;4974261;28;20042;-56
2022/02/28 00:35:36;;;;;;;3.97;2.13;;;;;;;4.50;94.19;102772.56;4970136;28;20437;-58
2022/02/28 00:38:03;;;;;;;5.95;2.35;;;;;;;4.49;94.50;102781.59;4968451;28;20027;-58
2022/02/28 00:40:28;;;;;;;4.82;2.15;;;;;;;4.42;94.71;102778.38;4973647;28;20089;-59
2022/02/28 00:42:54;;;;;;;6.13;2.90;;;;;;;4.40;94.16;102775.16;4973322;28;20031;-59
2022/02/28 00:45:19;;;;;;;9.25;2.05;;;;;;;4.40;95.06;102780.50;4973537;28;20430;-58
2022/02/28 00:47:45;;;;;;;5.28;2.33;;;;;;;4.42;94.99;102777.56;5004544;28;20029;-57
2022/02/28 00:50:11;;;;;;;4.50;2.45;;;;;;;4.39;94.31;102776.22;4973241;28;20030;-57
2022/02/28 00:52:37;;;;;;;6.90;2.55;;;;;;;4.40;94.24;102775.16;5004443;28;20031;-57
2022/02/28 00:55:05;;;;;;;5.25;2.47;;;;;;;4.39;94.17;102773.56;4961678;28;20042;-56
2022/02/28 00:57:30;;;;;;;5.95;2.47;;;;;;;4.34;94.06;102775.41;4964804;28;20557;-58
2022/02/28 00:59:56;;;;;;;6.50;2.53;;;;;;;4.31;94.40;102768.75;4971819;28;20123;-55
2022/02/28 01:02:22;;;;;;;5.97;2.30;;;;;;;4.30;94.44;102771.66;5004293;28;20050;-56
2022/02/28 01:04:49;;;;;;;11.32;2.38;;;;;;;4.25;94.14;102775.13;4961812;28;20042;-50
2022/02/28 01:07:14;;;;;;;3.38;2.17;;;;;;;4.27;94.68;102774.84;4969863;28;20489;-57
2022/02/28 01:09:40;;;;;;;5.00;2.58;;;;;;;4.26;94.12;102765.22;4970687;28;20046;-56
2022/02/28 01:12:07;;;;;;;6.40;2.88;;;;;;;4.24;94.52;102770.81;4971646;28;20181;-55
2022/02/28 01:14:37;;;;;;;8.23;2.70;;;;;;;4.23;94.76;102755.91;4967281;28;20035;-54
2022/02/28 01:17:03;;;;;;;3.10;1.73;;;;;;;4.21;94.33;102762.53;4970641;28;20082;-56
2022/02/28 01:19:29;;;;;;;4.15;2.35;;;;;;;4.20;94.14;102761.75;5004326;28;20434;-59
2022/02/28 01:21:54;;;;;;;4.03;1.85;;;;;;;4.18;93.98;102755.09;4971421;28;20039;-56
2022/02/28 01:24:20;;;;;;;5.70;2.78;;;;;;;4.15;94.54;102753.72;4965099;28;20077;-58
2022/02/28 01:26:45;;;;;;;4.85;1.92;;;;;;;4.13;94.37;102755.84;4971947;28;20031;-59
2022/02/28 01:29:12;;;;;;;3.70;2.20;;;;;;;4.06;94.40;102762.47;4975155;28;20042;-59
2022/02/28 01:31:38;;;;;;;5.50;2.65;;;;;;;4.05;94.45;102756.34;4972279;28;20121;-57
2022/02/28 01:34:04;;;;;;;7.28;2.60;;;;;;;4.02;95.00;102753.38;4971394;28;20105;-59
2022/02/28 01:36:30;;;;;;;10.43;2.20;;;;;;;4.00;94.62;102759.00;4971910;28;20117;-55
2022/02/28 01:38:55;;;;;;;8.90;2.22;;;;;;;4.00;94.17;102756.31;4971644;28;20130;-56
2022/02/28 01:41:21;;;;;;;4.95;2.33;;;;;;;3.96;94.91;102757.91;4969209;28;20041;-53
2022/02/28 01:43:46;;;;;;;2.80;1.83;;;;;;;3.97;94.72;102754.16;4972908;28;20023;-51
2022/02/28 01:46:12;;;;;;;5.68;2.00;;;;;;;3.95;95.03;102758.94;4969002;28;20053;-54
2022/02/28 01:48:38;;;;;;;9.80;2.78;;;;;;;3.92;94.71;102759.47;5001920;28;20035;-54
2022/02/28 01:51:04;;;;;;;7.10;2.60;;;;;;;3.91;93.89;102751.75;4970743;28;20042;-52
2022/02/28 01:53:30;;;;;;;9.02;3.08;;;;;;;3.92;94.49;102753.34;5002881;28;20030;-56
2022/02/28 01:55:55;;;;;;;5.85;2.25;;;;;;;3.92;94.80;102761.31;4960628;28;20201;-52
2022/02/28 01:58:21;;;;;;;6.00;2.58;;;;;;;3.91;93.97;102749.06;4970258;28;20049;-52
2022/02/28 02:00:46;;;;;;;5.25;2.03;;;;;;;3.86;94.31;102749.03;4970161;28;20034;-54
2022/02/28 02:03:12;;;;;;;6.53;2.55;;;;;;;3.86;94.48;102765.00;4966683;28;20031;-50
2022/02/28 02:05:38;;;;;;;7.30;2.75;;;;;;;3.82;93.98;102763.91;4951892;28;20062;-52
2022/02/28 02:08:06;;;;;;;10.93;2.10;;;;;;;3.80;94.00;102752.72;4969449;28;20031;-47
2022/02/28 02:10:33;;;;;;;7.18;3.63;;;;;;;3.76;94.80;102743.63;4970626;28;20089;-52
2022/02/28 02:12:59;;;;;;;6.43;2.75;;;;;;;3.74;94.80;102746.56;4964637;28;20042;-54
2022/02/28 02:15:27;;;;;;;7.45;2.53;;;;;;;3.76;94.98;102746.28;4998739;28;20029;-59
2022/02/28 02:17:53;;;;;;;6.97;2.28;;;;;;;3.72;94.68;102755.88;4961134;28;20051;-55
2022/02/28 02:20:19;;;;;;;9.05;2.92;;;;;;;3.70;94.48;102750.00;4980780;28;20038;-48
2022/02/28 02:22:59;;;;;;;7.72;2.17;;;;;;;3.67;94.62;102746.81;4972934;28;20394;-55
2022/02/28 02:25:25;;;;;;;6.30;2.85;;;;;;;3.61;94.36;102742.50;5003125;28;20058;-48
2022/02/28 02:27:50;;;;;;;5.63;2.63;;;;;;;3.62;94.50;102743.28;4966477;28;20498;-49
2022/02/28 02:30:17;;;;;;;6.82;2.80;;;;;;;3.62;94.80;102743.28;4966509;28;20062;-51
2022/02/28 02:32:43;;;;;;;9.57;2.97;;;;;;;3.64;95.00;102757.94;5003182;28;20034;-54
2022/02/28 02:35:11;;;;;;;3.97;2.08;;;;;;;3.62;95.26;102753.94;4965848;28;20118;-57
2022/02/28 02:37:37;;;;;;;6.20;2.58;;;;;;;3.56;94.81;102747.75;4962465;28;20074;-57
2022/02/28 02:40:04;;;;;;;6.13;2.35;;;;;;;3.56;95.87;102749.66;4970496;28;20022;-49
2022/02/28 02:42:29;;;;;;;8.27;2.88;;;;;;;3.56;94.77;102754.97;4969168;28;20031;-56
2022/02/28 02:44:56;;;;;;;9.32;2.80;;;;;;;3.56;95.12;102754.97;4967424;28;20176;-48
2022/02/28 02:47:22;;;;;;;9.85;2.50;;;;;;;3.49;95.01;102763.16;4968914;28;20486;-51
2022/02/28 02:50:16;;;;;;;7.35;2.67;;;;;;;3.47;95.71;102756.50;4958132;28;20417;-48
2022/02/28 02:52:42;;;;;;;8.55;2.17;;;;;;;3.44;95.52;102757.00;4969029;28;20038;-48
2022/02/28 02:55:08;;;;;;;6.90;2.33;;;;;;;3.41;94.90;102747.66;4970389;28;20027;-52
2022/02/28 02:57:34;;;;;;;7.15;2.47;;;;;;;3.42;95.09;102754.59;5003301;28;20517;-50
2022/02/28 03:00:04;;;;;;;4.55;1.92;;;;;;;3.40;95.35;102751.41;4999338;28;20440;-51
2022/02/28 03:02:33;;;;;;;7.63;3.00;;;;;;;3.39;95.79;102754.28;4971022;28;20042;-48
2022/02/28 03:05:01;;;;;;;10.55;3.28;;;;;;;3.37;95.28;102746.56;5000648;28;20066;-50
2022/02/28 03:07:26;;;;;;;4.80;2.58;;;;;;;3.37;95.45;102751.06;4960576;28;20031;-56
2022/02/28 03:09:52;;;;;;;5.13;2.38;;;;;;;3.34;95.89;102747.09;4967668;28;20077;-53
2022/02/28 03:12:17;;;;;;;4.35;2.80;;;;;;;3.31;95.46;102741.47;4949261;28;20116;-48
2022/02/28 03:14:45;;;;;;;7.03;3.22;;;;;;;3.26;95.84;102738.75;4968230;28;20073;-49
2022/02/28 03:17:11;;;;;;;6.55;2.42;;;;;;;3.27;96.14;102746.47;4965516;28;20042;-61
2022/02/28 03:19:37;;;;;;;5.13;2.08;;;;;;;3.28;95.69;102742.78;4977926;28;20027;-53
2022/02/28 03:22:04;;;;;;;4.97;2.60;;;;;;;3.26;96.04;102739.56;4968454;28;20026;-57
2022/02/28 03:24:32;;;;;;;6.82;2.47;;;;;;;3.23;95.70;102729.41;4969976;28;20023;-49
2022/02/28 03:26:58;;;;;;;5.97;2.13;;;;;;;3.21;95.66;102742.19;4952172;28;20504;-51
2022/02/28 03:29:25;;;;;;;5.68;2.90;;;;;;;3.17;94.99;102735.78;4968604;28;20038;-53
2022/02/28 03:31:51;;;;;;;6.32;2.22;;;;;;;3.13;95.07;102728.53;5001717;28;20497;-55
2022/02/28 03:34:17;;;;;;;5.07;2.55;;;;;;;3.11;95.90;102742.09;5002069;28;20033;-54
2022/02/28 03:36:42;;;;;;;7.22;2.50;;;;;;;3.08;94.89;102731.94;4992719;28;20170;-48
2022/02/28 03:39:13;;;;;;;7.88;3.15;;;;;;;3.07;95.00;102727.69;4967565;28;20026;-50
2022/02/28 03:41:39;;;;;;;8.88;2.50;;;;;;;3.05;95.23;102724.47;4968282;28;20042;-55
2022/02/28 03:44:05;;;;;;;12.35;2.78;;;;;;;3.01;95.54;102726.03;4968065;28;20304;-49
2022/02/28 03:46:34;;;;;;;6.85;3.35;;;;;;;3.00;95.86;102716.44;4996022;28;20057;-57
2022/02/28 03:49:19;;;;;;;6.90;2.00;;;;;;;2.97;95.98;102714.28;4963798;28;20549;-51
2022/02/28 03:52:06;;;;;;;5.38;1.98;;;;;;;2.96;95.54;102719.88;4961470;28;20054;-52
2022/02/28 03:55:04;;;;;;;5.53;2.35;;;;;;;2.94;95.95;102714.81;4950299;28;20122;-54
2022/02/28 03:57:30;;;;;;;5.95;2.95;;;;;;;2.93;95.82;102704.41;4963922;28;20037;-53
2022/02/28 03:59:56;;;;;;;10.45;2.65;;;;;;;2.93;95.56;102702.53;4967266;28;20477;-56
2022/02/28 04:02:22;;;;;;;7.60;2.67;;;;;;;2.90;95.32;102697.75;4968585;28;20034;-53
2022/02/28 04:04:48;;;;;;;7.45;2.97;;;;;;;2.90;95.08;102697.75;4968222;28;20041;-56
2022/02/28 04:07:14;;;;;;;10.18;2.50;;;;;;;2.87;95.22;102700.09;5001781;28;20121;-56
2022/02/28 04:09:40;;;;;;;6.75;2.20;;;;;;;2.86;95.25;102704.63;5000810;28;20050;-55
2022/02/28 04:12:08;;;;;;;6.88;2.38;;;;;;;2.85;95.80;102704.84;4981186;28;20038;-52
2022/02/28 04:14:34;;;;;;;4.55;2.40;;;;;;;2.83;95.93;102713.09;4953279;28;20506;-49
2022/02/28 04:17:01;;;;;;;7.13;3.05;;;;;;;2.80;95.57;102710.94;4969813;28;20033;-53
2022/02/28 04:19:39;;;;;;;7.13;2.40;;;;;;;2.81;96.04;102709.09;4969802;28;20031;-55
2022/02/28 04:22:06;;;;;;;10.15;3.20;;;;;;;2.79;95.66;102706.66;4965618;28;20035;-50
2022/02/28 04:24:34;;;;;;;7.22;2.83;;;;;;;2.82;95.94;102711.50;4969026;28;20030;-55
2022/02/28 04:27:00;;;;;;;10.18;2.72;;;;;;;2.79;95.71;102705.88;4966485;28;20090;-50
2022/02/28 04:29:26;;;;;;;6.20;2.22;;;;;;;2.77;96.03;102706.09;4967945;28;20445;-55
2022/02/28 04:32:00;;;;;;;7.68;3.42;;;;;;;2.77;96.54;102706.09;4956354;28;20034;-51
2022/02/28 04:34:28;;;;;;;5.97;2.40;;;;;;;2.78;95.97;102704.25;4960224;28;20042;-50
2022/02/28 04:36:53;;;;;;;10.75;2.55;;;;;;;2.75;95.60;102708.22;4960170;28;20043;-55
2022/02/28 04:39:19;;;;;;;8.73;3.38;;;;;;;2.75;95.44;102700.25;4955127;28;20027;-54
2022/02/28 04:41:45;;;;;;;8.50;2.60;;;;;;;2.71;96.15;102691.97;4959356;28;20031;-51
2022/02/28 04:44:12;;;;;;;7.47;3.38;;;;;;;2.67;96.21;102696.19;4956412;28;20114;-54
2022/02/28 04:46:37;;;;;;;6.70;2.75;;;;;;;2.67;96.44;102695.41;4959108;28;20122;-55
2022/02/28 04:49:22;;;;;;;4.63;2.35;;;;;;;2.62;96.48;102695.31;4969104;28;20073;-54
2022/02/28 04:51:53;;;;;;;4.30;2.67;;;;;;;2.64;96.72;102687.91;4970051;28;20045;-57
2022/02/28 04:54:19;;;;;;;7.65;2.92;;;;;;;2.64;96.29;102683.41;4968692;28;20405;-49
2022/02/28 04:56:45;;;;;;;6.13;2.17;;;;;;;2.63;95.91;102694.28;4972059;28;20371;-51
2022/02/28 04:59:10;;;;;;;6.38;2.17;;;;;;;2.61;96.27;102696.41;4971188;28;20045;-55
2022/02/28 05:01:42;;;;;;;7.47;3.15;;;;;;;2.60;96.10;102692.13;4962939;28;20488;-58
2022/02/28 05:04:33;;;;;;;;;;;;;;;2.62;96.24;102693.47;4945268;28;20039;-58
2022/02/28 05:06:59;;;;;;;9.23;3.33;;;;;;;2.60;96.65;102700.09;4958068;28;20028;-53
2022/02/28 05:09:24;;;;;;;5.05;2.15;;;;;;;2.60;96.36;102692.94;4944344;28;20023;-48
2022/02/28 05:11:50;;;;;;;3.92;2.40;;;;;;;2.56;96.15;102689.16;4958231;28;20038;-55
2022/02/28 05:14:16;;;;;;;8.48;2.75;;;;;;;2.57;96.33;102693.44;4987267;28;20030;-56
2022/02/28 05:16:42;;;;;;;8.57;2.58;;;;;;;2.55;96.16;102692.88;4998973;28;20035;-61
2022/02/28 05:19:08;;;;;;;8.40;2.33;;;;;;;2.52;96.12;102684.59;4952792;28;20097;-55
2022/02/28 05:21:35;;;;;;;7.78;2.88;;;;;;;2.50;95.83;102686.69;4968164;28;20525;-57
2022/02/28 05:24:03;;;;;;;4.97;2.28;;;;;;;2.48;96.55;102694.13;4967082;28;20037;-56
2022/02/28 05:26:28;;;;;;;4.30;2.78;;;;;;;2.48;96.33;102696.78;4952410;28;20074;-58
2022/02/28 05:28:54;;;;;;;6.95;2.90;;;;;;;2.45;96.39;102691.97;4962264;28;20425;-53
2022/02/28 05:31:19;;;;;;;8.18;2.72;;;;;;;2.47;96.01;102689.88;4970443;28;20037;-52
2022/02/28 05:33:50;;;;;;;9.20;3.22;;;;;;;2.44;96.70;102693.81;4971902;28;20046;-51
2022/02/28 05:36:17;;;;;;;7.07;2.65;;;;;;;2.40;96.89;102698.03;4952331;28;20778;-56
2022/02/28 05:38:49;;;;;;;6.95;3.47;;;;;;;2.44;96.24;102703.66;4994058;28;20031;-62
2022/02/28 05:41:18;;;;;;;7.57;2.80;;;;;;;2.43;96.67;102692.22;4971600;28;20066;-53
2022/02/28 05:43:51;;;;;;;6.97;2.75;;;;;;;2.42;96.33;102690.59;4999190;28;20490;-53
2022/02/28 05:46:17;;;;;;;7.28;2.00;;;;;;;2.41;96.21;102693.50;4968904;28;20047;-59
2022/02/28 05:48:55;;;;;;;6.72;2.40;;;;;;;2.37;96.60;102697.72;4968324;28;20026;-57
2022/02/28 05:51:27;;;;;;;4.90;2.47;;;;;;;2.35;96.93;102694.50;4969741;28;20485;-54
2022/02/28 05:53:52;;;;;;;8.10;3.55;;;;;;;2.32;97.14;102708.31;4961149;28;20085;-48
2022/02/28 05:56:18;;;;;;;4.05;2.30;;;;;;;2.31;96.57;102704.03;4969699;28;20073;-52
2022/02/28 05:58:44;;;;;;;6.10;3.13;;;;;;;2.32;97.03;102705.66;4969829;28;20158;-52
2022/02/28 06:01:09;;;;;;;5.97;2.53;;;;;;;2.30;97.11;102703.25;4968936;28;20031;-49
2022/02/28 06:03:34;;;;;;;7.75;2.50;;;;;;;2.29;97.07;102706.94;4959624;28;20046;-49
2022/02/28 06:06:00;;;;;;;4.35;1.92;;;;;;;2.31;97.41;102704.03;4967784;28;20086;-53
2022/02/28 06:08:26;;;;;;;10.73;3.13;;;;;;;2.29;97.06;102708.78;4971718;28;20371;-49
2022/02/28 06:10:51;;;;;;;6.45;2.28;;;;;;;2.27;97.14;102709.03;4961942;28;20046;-53
2022/02/28 06:13:17;;;;;;;8.60;3.58;;;;;;;2.28;97.02;102710.66;4960173;28;20117;-49
2022/02/28 06:15:42;;;;;;;9.07;3.40;;;;;;;2.26;96.84;102717.25;4958162;28;20063;-53
2022/02/28 06:18:09;;;;;;;5.15;2.83;;;;;;;2.28;97.25;102707.19;4952120;28;20497;-50
2022/02/28 06:20:39;;;;;;;8.35;3.22;;;;;;;2.24;97.30;102711.41;4959221;28;20030;-54
2022/02/28 06:23:05;;;;;;;5.90;2.80;;;;;;;2.23;97.14;102715.91;4957575;28;20525;-58
2022/02/28 06:25:31;;;;;;;4.80;2.25;;;;;;;2.21;97.24;102710.03;4954637;28;20454;-58
2022/02/28 06:27:57;;;;;;;7.68;3.00;;;;;;;2.19;97.32;102729.94;4954866;28;20045;-52
2022/02/28 06:30:23;;;;;;;11.43;4.00;;;;;;;2.22;97.27;102729.44;4953465;28;20031;-57
2022/02/28 06:32:48;;;;;;;7.47;2.40;;;;;;;2.21;97.13;102719.84;4963313;28;20049;-51
2022/02/28 06:35:14;;;;;;;14.23;3.78;;;;;;;2.16;97.35;102717.94;4967203;28;20050;-52
2022/02/28 06:37:39;;;;;;;9.05;3.63;;;;;;;2.16;97.79;102717.13;4959836;28;20054;-54
2022/02/28 06:40:06;;;;;;;4.53;2.50;;;;;;;2.19;97.40;102729.94;4958947;28;20453;-59
2022/02/28 06:42:31;;;;;;;8.30;2.45;;;;;;;2.16;97.58;102728.56;4964955;28;20121;-59
2022/02/28 06:44:57;;;;;;;6.70;2.88;;;;;;;2.20;97.83;102731.53;4970587;28;20177;-49
2022/02/28 06:47:23;;;;;;;6.22;2.22;;;;;;;2.18;97.61;102741.59;4998665;28;20023;-49
2022/02/28 06:49:48;;;;;;;10.07;3.75;;;;;;;2.16;97.79;102727.75;4970391;28;20042;-55
2022/02/28 06:52:14;;;;;;;9.65;2.95;;;;;;;2.16;98.34;102727.75;4969141;28;20116;-55
2022/02/28 06:54:39;;;;;;;7.72;4.25;;;;;;;2.18;98.28;102731.78;4967667;28;20031;-50
2022/02/28 06:57:05;;;;;;;9.50;3.15;;;;;;;2.15;97.87;102731.50;4964710;28;20138;-52
2022/02/28 06:59:30;;;;;;;5.40;2.17;;;;;;;2.14;98.62;102727.22;4970010;28;20050;-53
2022/02/28 07:01:56;;;;;;;4.57;2.33;;;;;;;2.16;98.58;102733.09;4956281;28;20027;-60
2022/02/28 07:04:43;;;;;;;7.30;3.35;;;;;;;2.20;98.09;102736.84;4955121;28;20031;-52
2022/02/28 07:07:11;;;;;;;7.85;3.50;;;;;;;2.23;98.56;102734.50;4965739;28;20610;-56
2022/02/28 07:09:37;;;;;;;6.80;3.08;;;;;;;2.26;98.59;102728.72;4957370;28;20130;-53
2022/02/28 07:12:03;;;;;;;8.63;3.78;;;;;;;2.26;98.11;102728.72;4967667;28;20154;-56
2022/02/28 07:14:28;;;;;;;11.38;3.30;;;;;;;2.27;98.20;102722.31;4968355;28;20065;-59
2022/02/28 07:16:54;;;;;;;7.63;3.40;;;;;;;2.29;98.61;102730.03;4963116;28;20101;-54
2022/02/28 07:19:19;;;;;;;5.82;3.15;;;;;;;2.35;99.03;102737.03;4968416;28;21623;-55
2022/02/28 07:21:45;;;;;;;4.60;2.40;;;;;;;2.39;98.27;102738.94;4965302;28;20030;-56
2022/02/28 07:24:10;;;;;;;10.13;3.53;;;;;;;2.42;98.53;102727.03;4969583;28;20034;-62
2022/02/28 07:26:36;;;;;;;8.75;3.08;;;;;;;2.45;98.47;102731.84;4970270;28;20482;-61
2022/02/28 07:29:01;;;;;;;4.47;2.58;;;;;;;2.39;97.57;102730.97;4965969;28;20114;-57
2022/02/28 07:31:27;;;;;;;9.57;3.50;;;;;;;2.39;97.68;102727.50;4969725;28;20039;-59
2022/02/28 07:33:52;;;;;;;7.57;3.58;;;;;;;2.37;98.53;102721.63;4970297;28;20417;-53
2022/02/28 07:36:18;;;;;;;6.25;3.13;;;;;;;2.42;98.57;102727.03;4963095;28;20062;-53
2022/02/28 07:38:44;;;;;;;14.07;4.05;;;;;;;2.52;98.06;102721.81;4990549;28;20035;-56
2022/02/28 07:41:09;;;;;;;12.30;3.72;;;;;;;2.57;97.81;102733.31;4969290;28;20047;-53
2022/02/28 07:43:35;;;;;;;10.63;3.85;;;;;;;2.65;98.20;102734.72;4969911;28;20035;-52
2022/02/28 07:46:01;;;;;;;10.90;3.63;;;;;;;2.80;97.66;102745.53;4966302;28;20062;-60
2022/02/28 07:48:26;;;;;;;9.90;3.70;;;;;;;2.89;97.58;102738.69;4966742;28;20166;-49
2022/02/28 07:50:52;;;;;;;10.95;4.63;;;;;;;3.01;96.71;102738.53;4960708;28;20042;-58
2022/02/28 07:53:18;;;;;;;12.25;3.50;;;;;;;3.16;96.54;102736.81;4960433;28;20047;-48
2022/02/28 07:55:44;;;;;;;7.75;3.33;;;;;;;3.31;96.30;102742.25;4961785;28;20038;-60
2022/02/28 07:58:10;;;;;;;10.50;4.07;;;;;;;3.48;95.54;102750.91;4964133;28;20049;-58
2022/02/28 08:00:36;;;;;;;15.23;4.68;;;;;;;3.61;95.42;102747.81;4959154;28;20020;-62
2022/02/28 08:03:02;;;;;;;15.40;4.00;;;;;;;3.77;94.65;102753.25;4967222;28;20549;-58
2022/02/28 08:05:28;;;;;;;10.60;4.10;;;;;;;3.90;94.79;102752.78;4966928;28;20142;-48
2022/02/28 08:07:53;;;;;;;12.82;4.45;;;;;;;4.01;93.81;102749.09;4968890;28;20109;-48
2022/02/28 08:10:21;;;;;;;9.73;3.72;;;;;;;4.08;91.76;102750.50;4960457;28;20019;-55
2022/02/28 08:12:46;;;;;;;9.65;4.45;;;;;;;4.09;91.75;102748.63;4963865;28;20038;-60
2022/02/28 08:15:12;;;;;;;8.45;3.78;;;;;;;4.21;91.60;102752.69;4951437;28;20042;-49
2022/02/28 08:17:37;;;;;;;8.32;3.60;;;;;;;4.30;91.00;102760.97;4957381;28;20034;-51
2022/02/28 08:20:03;;;;;;;12.13;3.50;;;;;;;4.45;90.13;102758.41;4957131;28;20030;-53
2022/02/28 08:22:29;;;;;;;10.77;4.07;;;;;;;4.58;89.65;102760.56;4963522;28;20054;-53
2022/02/28 08:24:55;;;;;;;10.50;4.18;;;;;;;4.76;89.17;102757.44;4957709;28;20039;-51
2022/02/28 08:27:21;;;;;;;9.02;4.45;;;;;;;4.82;87.86;102764.34;4960972;28;20097;-56
2022/02/28 08:29:48;;;;;;;11.90;3.83;;;;;;;4.85;87.92;102763.84;4960766;28;20039;-57
2022/02/28 08:32:13;;;;;;;9.70;4.50;;;;;;;4.88;87.78;102763.31;4961640;28;20035;-55
2022/02/28 08:34:39;;;;;;;11.93;4.32;;;;;;;5.07;87.52;102755.59;4963749;28;20559;-50
2022/02/28 08:37:04;;;;;;;11.38;4.50;;;;;;;5.16;86.11;102760.16;4956243;28;20254;-55
2022/02/28 08:39:29;;;;;;;8.00;3.58;;;;;;;5.14;85.00;102766.81;4956725;28;20038;-57
2022/02/28 08:41:55;;;;;;;15.45;5.00;;;;;;;5.20;84.45;102760.41;4961234;28;20050;-51
2022/02/28 08:44:20;;;;;;;11.80;4.43;;;;;;;5.34;84.28;102766.84;4962478;28;20042;-52
2022/02/28 08:46:46;;;;;;;7.25;3.70;;;;;;;5.18;84.57;102763.38;4962865;28;20038;-51
2022/02/28 08:49:11;;;;;;;12.30;4.85;;;;;;;5.24;85.57;102764.97;4960456;28;20134;-57
2022/02/28 08:51:38;;;;;;;12.80;4.68;;;;;;;5.39;86.01;102772.97;4964190;28;20418;-55
2022/02/28 08:54:04;;;;;;;9.70;4.57;;;;;;;5.67;84.56;102771.59;4977221;28;20294;-55
2022/02/28 08:56:29;;;;;;;10.98;4.57;;;;;;;5.76;84.16;102771.88;4959713;28;20041;-58
2022/02/28 08:58:55;;;;;;;13.45;5.07;;;;;;;5.92;84.20;102774.28;4973628;28;20437;-55
2022/02/28 09:01:20;;;;;;;10.80;4.35;;;;;;;6.10;83.74;102773.72;4964581;28;20039;-55
2022/02/28 09:03:46;;;;;;;12.60;4.70;;;;;;;6.23;82.03;102783.03;4964413;28;20042;-57
2022/02/28 09:06:11;;;;;;;19.00;5.10;;;;;;;6.27;81.48;102784.09;4970582;28;20379;-54
2022/02/28 09:08:37;;;;;;;13.63;4.60;;;;;;;6.30;80.22;102779.00;4963311;28;20054;-50
2022/02/28 09:11:02;;;;;;;16.17;5.70;;;;;;;6.41;80.09;102781.66;4957642;28;20126;-58
2022/02/28 09:13:28;;;;;;;15.18;5.32;;;;;;;6.61;78.21;102794.91;4964723;28;20035;-49
2022/02/28 09:15:53;;;;;;;13.00;4.93;;;;;;;6.69;77.82;102789.81;4962974;28;20034;-50
2022/02/28 09:18:19;;;;;;;11.80;4.57;;;;;;;6.77;78.58;102785.75;4971842;28;20034;-56
2022/02/28 09:20:44;;;;;;;16.05;5.68;;;;;;;6.84;78.10;102787.03;4969862;28;20069;-55
2022/02/28 09:23:10;;;;;;;12.68;5.13;;;;;;;6.89;76.53;102778.97;4969841;28;20453;-48
2022/02/28 09:25:35;;;;;;;17.20;5.35;;;;;;;6.92;75.92;102782.97;4968144;28;20037;-60
2022/02/28 09:28:01;;;;;;;15.88;5.07;;;;;;;6.88;76.73;102792.63;4953972;28;20462;-60
2022/02/28 09:30:27;;;;;;;13.27;5.05;;;;;;;7.10;76.37;102788.47;4953660;28;20019;-58
2022/02/28 09:32:55;;;;;;;12.10;5.35;;;;;;;7.21;75.58;102791.91;4976991;28;20038;-54
2022/02/28 09:35:21;;;;;;;9.90;4.50;;;;;;;7.18;74.51;102801.28;4961561;28;20215;-53
2022/02/28 09:37:46;;;;;;;13.55;4.55;;;;;;;7.27;74.15;102790.78;4963954;28;20140;-54
2022/02/28 09:40:12;;;;;;;13.10;5.15;;;;;;;7.33;74.80;102784.31;4956201;28;20023;-50
2022/02/28 09:42:38;;;;;;;17.33;4.63;;;;;;;7.61;74.80;102796.13;4960165;28;20046;-53
2022/02/28 09:45:23;;;;;;;14.57;5.10;;;;;;;7.64;73.11;102791.03;4959436;28;20074;-50
2022/02/28 09:48:10;;;;;;;12.07;5.30;;;;;;;7.53;72.95;102789.50;4933447;28;20079;-51
2022/02/28 09:50:54;;;;;;;11.38;4.47;;;;;;;7.42;72.46;102787.97;4964206;28;20775;-52
2022/02/28 09:53:46;;;;;;;11.23;4.50;;;;;;;7.39;72.89;102793.09;4950248;28;20039;-58
2022/02/28 09:56:40;;;;;;;13.75;3.88;;;;;;;7.18;73.48;102797.81;4959429;28;20126;-56
2022/02/28 09:59:31;;;;;;;9.17;3.60;;;;;;;7.23;73.26;102795.91;4967843;28;20486;-53
2022/02/28 10:02:00;;;;;;;11.68;4.03;;;;;;;7.17;73.56;102799.69;4953963;28;20031;-53
2022/02/28 10:04:26;;;;;;;8.25;4.00;;;;;;;7.22;74.02;102801.53;4960226;28;20096;-50
2022/02/28 10:06:51;;;;;;;9.50;3.58;;;;;;;7.21;73.98;102800.75;4962875;28;20121;-49
2022/02/28 10:09:19;;;;;;;11.60;4.07;;;;;;;7.36;73.56;102804.38;4959087;28;20110;-54
2022/02/28 10:11:48;;;;;;;7.50;3.72;;;;;;;7.32;74.86;102803.34;4957737;28;20043;-54
2022/02/28 10:14:14;;;;;;;11.75;4.00;;;;;;;7.27;74.96;102799.63;4962355;28;20114;-58
2022/02/28 10:16:44;;;;;;;7.50;3.42;;;;;;;7.32;74.90;102810.31;4965767;28;20501;-52
2022/02/28 10:19:14;;;;;;;8.77;3.55;;;;;;;7.33;74.02;102797.72;4961227;28;20079;-51
2022/02/28 10:21:43;;;;;;;9.40;2.85;;;;;;;7.44;74.04;102801.91;4964798;28;20553;-51
2022/02/28 10:24:11;;;;;;;8.48;3.90;;;;;;;7.36;75.23;102807.03;4965719;28;20039;-59
2022/02/28 10:27:00;;;;;;;11.38;4.00;;;;;;;7.49;74.98;102807.22;4937397;28;20129;-55
2022/02/28 10:29:55;;;;;;;10.77;3.88;;;;;;;7.56;74.93;102807.72;4933300;28;20036;-60
2022/02/28 10:32:50;;;;;;;9.57;2.97;;;;;;;7.50;74.64;102802.66;4965350;28;20216;-52
2022/02/28 10:36:00;;;;;;;10.25;3.28;;;;;;;7.55;74.93;102814.13;4958191;28;20054;-54
2022/02/28 10:38:57;;;;;;;11.88;4.00;;;;;;;7.75;75.16;102807.81;4956645;28;20038;-51
2022/02/28 10:41:35;;;;;;;8.10;3.17;;;;;;;7.77;75.43;102809.13;4969878;28;20418;-51
2022/02/28 10:44:02;;;;;;;12.07;3.20;;;;;;;7.95;73.75;102803.06;4967376;28;20500;-56
2022/02/28 10:46:36;;;;;;;9.23;4.07;;;;;;;7.87;73.42;102805.56;4971146;28;20039;-56
2022/02/28 10:49:07;;;;;;;14.30;3.97;;;;;;;7.86;74.28;102807.44;4965043;28;20037;-60
2022/02/28 10:51:45;;;;;;;9.07;4.05;;;;;;;7.88;74.72;102802.56;4969690;28;20433;-54
2022/02/28 10:54:13;;;;;;;9.73;4.40;;;;;;;8.12;74.08;102802.59;4959820;28;20063;-60
2022/02/28 10:56:46;;;;;;;10.95;3.10;;;;;;;8.03;74.39;102812.38;4957650;28;20545;-52
2022/02/28 10:59:12;;;;;;;12.10;4.28;;;;;;;8.04;73.53;102811.28;4961956;28;20063;-53
2022/02/28 11:01:42;;;;;;;8.38;3.58;;;;;;;8.06;74.24;102809.91;4956993;28;20039;-52
2022/02/28 11:04:08;;;;;;;6.35;3.75;;;;;;;7.92;73.34;102805.50;4952755;28;20034;-57
2022/02/28 11:06:35;;;;;;;9.75;3.38;;;;;;;7.91;74.75;102806.59;4960011;28;20458;-58
2022/02/28 11:09:04;;;;;;;12.40;3.80;;;;;;;7.91;74.40;102811.94;4959778;28;20027;-55
2022/02/28 11:11:30;;;;;;;9.77;3.10;;;;;;;7.97;73.97;102813.50;4961090;28;20039;-58
2022/02/28 11:13:56;;;;;;;12.00;4.07;;;;;;;7.97;74.35;102811.63;4957603;28;20035;-55
2022/02/28 11:16:22;;;;;;;10.18;3.55;;;;;;;8.03;74.81;102815.06;4955711;28;20035;-51
2022/02/28 11:18:48;;;;;;;12.73;3.80;;;;;;;8.02;75.22;102818.81;4958758;28;20031;-55
2022/02/28 11:21:14;;;;;;;8.45;3.70;;;;;;;8.14;75.25;102808.50;4957768;28;20405;-54
2022/02/28 11:23:44;;;;;;;9.93;3.72;;;;;;;8.31;74.17;102806.19;4960850;28;20502;-51
2022/02/28 11:26:10;;;;;;;12.40;3.28;;;;;;;8.07;73.86;102802.69;4959018;28;20129;-56
2022/02/28 11:28:36;;;;;;;12.45;3.88;;;;;;;8.06;74.51;102803.75;4961317;28;20122;-52
2022/02/28 11:31:03;;;;;;;9.65;3.28;;;;;;;8.14;75.11;102808.50;4966331;28;20126;-54
2022/02/28 11:33:29;;;;;;;8.02;4.10;;;;;;;8.21;74.87;102804.38;4958275;28;20500;-51
2022/02/28 11:35:55;;;;;;;8.68;3.10;;;;;;;8.18;74.31;102809.53;4956998;28;20039;-50